Terminal Aerodrome Forecast
Issued by NWS

Home | Current Version | Previous Version | Graphics & Text | Print | Product List | Glossary On
Versions: 1 2 3 4 5 6 7 8 9 10 11
000
FTUS43 KTOP 251700
TAFFOE
TAF
KFOE 251734Z 2518/2618 18022G32KT P6SM SCT200
     FM260000 19012KT P6SM SCT200
     FM261500 33007KT P6SM BKN025=

USA.gov is the U.S. government's official web portal to all federal, state and local government web resources and services.